KBNA/BNA METAR and TAF weather

Enter ICAO airport designator
Station Type Date Time Source
KBNA METAR 2019/05/20 10:53 UTC NOAA

KBNA 201053Z 00000KT 8SM FEW150 SCT250 19/18 A3003 RMK AO2 SLP162 T01940178


Station Type Date Time Source
KBNA Decoded METAR 2019/05/20 10:53 UTC NOAA

NASHVILLE INTERNATIONAL AIRPORT, TN, United States (KBNA) 36-07N 086-41W 210M
May 20, 2019 - 06:53 AM EDT / 2019.05.20 1053 UTC
Wind: Calm:0
Visibility: 8 mile(s):0
Sky conditions: partly cloudy
Temperature: 66.9 F (19.4 C)
Dew Point: 64.0 F (17.8 C)
Relative Humidity: 90%
Pressure (altimeter): 30.03 in. Hg (1016 hPa)
ob: KBNA 201053Z 00000KT 8SM FEW150 SCT250 19/18 A3003 RMK AO2 SLP162 T01940178
cycle: 11

Station Type Date Time Source
KBNA TAF 2019/05/20 10:54 UTC NOAA

TAF
AMD KBNA 200953Z 2010/2106 21009KT P6SM SCT150
TEMPO 2010/2012 6SM BR
FM201200 33005KT P6SM SCT250

Example: see airport list